Adrar, Algeria

2:14 PM CET on August 31, 2015 (GMT +0100)
Touat-Ch Sidi Mohamed Belkebir | | Change Station
CLOSE
Current Station
Airport
Location: Adrar,
Elevation: 919 ft
Nearby Weather Stations

Elev 919 ft 27.84 °N, 0.19 °W | Updated 1 hour ago

Clear
Clear
106 °F
Feels Like 106 °F
N
13
Wind Variable Wind from ENE

Today
High -- | Low -- °F
--% Chance of Precip.
Yesterday
High -- | Low -- °F
Precip. -- in
6:38 AM 7:23 PM
Waning Gibbous, 95% visible
Pressure 30.01 in
Visibility 5.0 miles
Clouds
Dew Point 48 °F
Humidity 14%
Rainfall 0.00 in
Snow Depth Not available.
UV Not available.
Pollen Not available.
Air Quality Not available.
Flu Activity Not available.
METAR DAUA 311200Z 07011KT 8000 NSC 41/09 Q1016
Pressure 30.01 in
Visibility 5.0 miles
Clouds
Dew Point 48 °F
Humidity 14%
Rainfall 0.00 in
Snow Depth Not available.
UV Not available.
Pollen Not available.
Air Quality Not available.
Flu Activity Not available.
METAR DAUA 311200Z 07011KT 8000 NSC 41/09 Q1016

10-Day Weather Forecast

×

Almanac

Astronomy

Aug. 31, 2015 Rise Set
Actual Time
Civil Twilight
Nautical Twilight
Astronomical Twilight
Moon
Length of Visible Light
Length of Day
Tomorrow will be .
, % of the Moon is Illuminated

Today's Extremes

Country Highs Country Lows

Community

WunderPhotos

Upload Photos

1,851,226 photos uploaded!

WunderBlogs® & News

Nearby

Air Quality

  Air Quality AQ Index Pollutant
Not available.

Snow Depth

Station Depth Elevation

Earthquake Activity

City Distance Mag. Time & Date
Minimum magnitude displayed is 2.5.

Coastal Water Temperatures

Place Temperature

Stations

Nearby Weather Stations

Station Location Temp. Windchill Dew Point Humidity Wind Precip. Elev Updated Type